sensor_id;sensor_type;location;lat;lon;timestamp;P1;durP1;ratioP1;P2;durP2;ratioP2
9667;SDS011;4872;48.316;10.650;2023-05-20T04:05:03;7.90;;;5.50;;
9667;SDS011;4872;48.316;10.650;2023-05-20T04:07:32;7.27;;;6.40;;
9667;SDS011;4872;48.316;10.650;2023-05-20T04:09:59;6.37;;;5.33;;
9667;SDS011;4872;48.316;10.650;2023-05-20T04:12:26;7.83;;;5.90;;
9667;SDS011;4872;48.316;10.650;2023-05-20T04:14:55;7.13;;;6.13;;
9667;SDS011;4872;48.316;10.650;2023-05-20T04:17:22;7.03;;;6.33;;
9667;SDS011;4872;48.316;10.650;2023-05-20T04:19:50;8.03;;;6.93;;
9667;SDS011;4872;48.316;10.650;2023-05-20T04:22:18;7.07;;;6.10;;
9667;SDS011;4872;48.316;10.650;2023-05-20T04:24:45;6.93;;;6.23;;
9667;SDS011;4872;48.316;10.650;2023-05-20T04:27:11;7.27;;;6.57;;
9667;SDS011;4872;48.316;10.650;2023-05-20T04:29:40;7.63;;;6.83;;
9667;SDS011;4872;48.316;10.650;2023-05-20T04:32:11;8.67;;;7.43;;
9667;SDS011;4872;48.316;10.650;2023-05-20T04:34:38;7.83;;;6.30;;
9667;SDS011;4872;48.316;10.650;2023-05-20T04:37:05;8.77;;;7.07;;
9667;SDS011;4872;48.316;10.650;2023-05-20T04:39:35;7.70;;;6.70;;
9667;SDS011;4872;48.316;10.650;2023-05-20T04:42:02;8.63;;;7.07;;
9667;SDS011;4872;48.316;10.650;2023-05-20T04:44:30;7.97;;;7.17;;
9667;SDS011;4872;48.316;10.650;2023-05-20T04:46:57;10.37;;;7.83;;
9667;SDS011;4872;48.316;10.650;2023-05-20T04:49:24;8.57;;;7.67;;
9667;SDS011;4872;48.316;10.650;2023-05-20T04:51:51;10.87;;;8.57;;
9667;SDS011;4872;48.316;10.650;2023-05-20T04:54:19;10.80;;;8.43;;
9667;SDS011;4872;48.316;10.650;2023-05-20T04:56:48;10.00;;;7.80;;
9667;SDS011;4872;48.316;10.650;2023-05-20T04:59:15;11.33;;;8.27;;
9667;SDS011;4872;48.316;10.650;2023-05-20T05:01:41;9.80;;;8.23;;
9667;SDS011;4872;48.316;10.650;2023-05-20T05:04:08;9.23;;;7.97;;
9667;SDS011;4872;48.316;10.650;2023-05-20T05:06:35;9.90;;;8.67;;
9667;SDS011;4872;48.316;10.650;2023-05-20T05:09:02;11.67;;;9.67;;
9667;SDS011;4872;48.316;10.650;2023-05-20T05:11:29;12.57;;;8.57;;
9667;SDS011;4872;48.316;10.650;2023-05-20T05:13:57;10.10;;;8.53;;
9667;SDS011;4872;48.316;10.650;2023-05-20T05:16:24;10.27;;;8.33;;
9667;SDS011;4872;48.316;10.650;2023-05-20T05:18:51;11.03;;;9.07;;
9667;SDS011;4872;48.316;10.650;2023-05-20T05:21:18;9.27;;;8.37;;
9667;SDS011;4872;48.316;10.650;2023-05-20T05:23:45;10.50;;;7.97;;
9667;SDS011;4872;48.316;10.650;2023-05-20T05:26:11;9.30;;;7.70;;
9667;SDS011;4872;48.316;10.650;2023-05-20T05:28:40;10.30;;;9.17;;
9667;SDS011;4872;48.316;10.650;2023-05-20T05:31:08;13.10;;;9.80;;
9667;SDS011;4872;48.316;10.650;2023-05-20T05:33:35;11.87;;;9.70;;
9667;SDS011;4872;48.316;10.650;2023-05-20T05:36:02;10.73;;;9.43;;
9667;SDS011;4872;48.316;10.650;2023-05-20T05:38:30;11.40;;;9.60;;
9667;SDS011;4872;48.316;10.650;2023-05-20T05:40:57;11.70;;;10.10;;
9667;SDS011;4872;48.316;10.650;2023-05-20T05:43:24;11.57;;;10.37;;
9667;SDS011;4872;48.316;10.650;2023-05-20T05:45:50;11.67;;;9.60;;
9667;SDS011;4872;48.316;10.650;2023-05-20T05:48:18;11.07;;;8.87;;
9667;SDS011;4872;48.316;10.650;2023-05-20T05:50:46;10.67;;;8.83;;
9667;SDS011;4872;48.316;10.650;2023-05-20T05:53:12;10.67;;;9.10;;
9667;SDS011;4872;48.316;10.650;2023-05-20T05:55:39;11.03;;;9.83;;
9667;SDS011;4872;48.316;10.650;2023-05-20T05:58:06;11.63;;;9.13;;
9667;SDS011;4872;48.316;10.650;2023-05-20T06:00:33;10.40;;;9.27;;
9667;SDS011;4872;48.316;10.650;2023-05-20T06:02:59;11.67;;;9.70;;
9667;SDS011;4872;48.316;10.650;2023-05-20T06:05:27;9.53;;;8.53;;
9667;SDS011;4872;48.316;10.650;2023-05-20T06:07:54;13.17;;;9.87;;
9667;SDS011;4872;48.316;10.650;2023-05-20T06:10:21;16.40;;;12.57;;
9667;SDS011;4872;48.316;10.650;2023-05-20T06:12:48;14.83;;;12.00;;
9667;SDS011;4872;48.316;10.650;2023-05-20T06:15:15;14.53;;;12.07;;
9667;SDS011;4872;48.316;10.650;2023-05-20T06:17:42;15.37;;;12.33;;
9667;SDS011;4872;48.316;10.650;2023-05-20T06:20:09;13.03;;;11.23;;
9667;SDS011;4872;48.316;10.650;2023-05-20T06:22:38;13.17;;;11.60;;
9667;SDS011;4872;48.316;10.650;2023-05-20T06:25:05;14.10;;;11.67;;
9667;SDS011;4872;48.316;10.650;2023-05-20T06:27:33;17.83;;;13.33;;
9667;SDS011;4872;48.316;10.650;2023-05-20T06:30:03;14.30;;;11.73;;
9667;SDS011;4872;48.316;10.650;2023-05-20T06:32:30;14.93;;;11.60;;
9667;SDS011;4872;48.316;10.650;2023-05-20T06:34:57;13.40;;;11.83;;
9667;SDS011;4872;48.316;10.650;2023-05-20T06:37:24;15.83;;;11.53;;
9667;SDS011;4872;48.316;10.650;2023-05-20T06:39:53;14.57;;;12.60;;
9667;SDS011;4872;48.316;10.650;2023-05-20T06:42:19;15.80;;;14.07;;
9667;SDS011;4872;48.316;10.650;2023-05-20T06:44:46;14.20;;;12.00;;
9667;SDS011;4872;48.316;10.650;2023-05-20T06:47:13;16.03;;;12.83;;
9667;SDS011;4872;48.316;10.650;2023-05-20T06:49:42;13.97;;;12.10;;
9667;SDS011;4872;48.316;10.650;2023-05-20T06:52:08;14.43;;;12.13;;
9667;SDS011;4872;48.316;10.650;2023-05-20T06:54:36;14.30;;;11.73;;
9667;SDS011;4872;48.316;10.650;2023-05-20T06:57:06;15.63;;;11.47;;
9667;SDS011;4872;48.316;10.650;2023-05-20T06:59:34;14.67;;;12.07;;
9667;SDS011;4872;48.316;10.650;2023-05-20T07:02:01;14.63;;;11.57;;
9667;SDS011;4872;48.316;10.650;2023-05-20T07:04:28;15.27;;;12.03;;
9667;SDS011;4872;48.316;10.650;2023-05-20T07:06:55;15.63;;;12.50;;
9667;SDS011;4872;48.316;10.650;2023-05-20T07:09:23;14.13;;;11.67;;
9667;SDS011;4872;48.316;10.650;2023-05-20T07:11:50;13.90;;;11.90;;
9667;SDS011;4872;48.316;10.650;2023-05-20T07:14:18;12.23;;;10.80;;
9667;SDS011;4872;48.316;10.650;2023-05-20T07:16:45;14.73;;;11.93;;
9667;SDS011;4872;48.316;10.650;2023-05-20T07:19:12;14.63;;;11.30;;
9667;SDS011;4872;48.316;10.650;2023-05-20T07:21:39;12.33;;;11.00;;
9667;SDS011;4872;48.316;10.650;2023-05-20T07:24:06;12.67;;;9.53;;
9667;SDS011;4872;48.316;10.650;2023-05-20T07:26:33;15.47;;;10.57;;
9667;SDS011;4872;48.316;10.650;2023-05-20T07:29:01;12.60;;;11.07;;
9667;SDS011;4872;48.316;10.650;2023-05-20T07:31:29;13.30;;;11.23;;
9667;SDS011;4872;48.316;10.650;2023-05-20T07:33:56;14.77;;;12.17;;
9667;SDS011;4872;48.316;10.650;2023-05-20T07:36:25;12.63;;;11.30;;
9667;SDS011;4872;48.316;10.650;2023-05-20T07:38:52;12.30;;;10.37;;
9667;SDS011;4872;48.316;10.650;2023-05-20T07:41:20;13.50;;;10.93;;
9667;SDS011;4872;48.316;10.650;2023-05-20T07:43:50;13.97;;;10.80;;
9667;SDS011;4872;48.316;10.650;2023-05-20T07:46:17;12.83;;;10.30;;
9667;SDS011;4872;48.316;10.650;2023-05-20T07:48:45;10.57;;;9.47;;
9667;SDS011;4872;48.316;10.650;2023-05-20T07:51:12;11.20;;;9.80;;
9667;SDS011;4872;48.316;10.650;2023-05-20T07:53:39;11.87;;;9.37;;
9667;SDS011;4872;48.316;10.650;2023-05-20T07:56:06;10.97;;;9.87;;
9667;SDS011;4872;48.316;10.650;2023-05-20T07:58:33;11.13;;;9.90;;
9667;SDS011;4872;48.316;10.650;2023-05-20T08:01:00;11.47;;;10.27;;
9667;SDS011;4872;48.316;10.650;2023-05-20T08:03:27;10.33;;;9.27;;
9667;SDS011;4872;48.316;10.650;2023-05-20T08:05:55;12.93;;;9.67;;
9667;SDS011;4872;48.316;10.650;2023-05-20T08:08:22;10.87;;;9.77;;
9667;SDS011;4872;48.316;10.650;2023-05-20T08:10:49;10.13;;;9.13;;
9667;SDS011;4872;48.316;10.650;2023-05-20T08:13:16;11.53;;;9.37;;
9667;SDS011;4872;48.316;10.650;2023-05-20T08:15:43;11.63;;;9.50;;
9667;SDS011;4872;48.316;10.650;2023-05-20T08:18:15;10.00;;;9.03;;
9667;SDS011;4872;48.316;10.650;2023-05-20T08:20:42;10.07;;;8.77;;
9667;SDS011;4872;48.316;10.650;2023-05-20T08:23:10;9.77;;;8.83;;
9667;SDS011;4872;48.316;10.650;2023-05-20T08:25:37;10.83;;;9.63;;
9667;SDS011;4872;48.316;10.650;2023-05-20T08:28:04;10.03;;;9.03;;
9667;SDS011;4872;48.316;10.650;2023-05-20T08:30:31;10.43;;;8.83;;
9667;SDS011;4872;48.316;10.650;2023-05-20T08:32:58;9.73;;;8.73;;
9667;SDS011;4872;48.316;10.650;2023-05-20T08:35:26;9.83;;;8.77;;
9667;SDS011;4872;48.316;10.650;2023-05-20T08:37:53;9.93;;;8.93;;
9667;SDS011;4872;48.316;10.650;2023-05-20T08:40:21;10.77;;;9.67;;
9667;SDS011;4872;48.316;10.650;2023-05-20T08:42:49;9.73;;;8.83;;
9667;SDS011;4872;48.316;10.650;2023-05-20T08:45:17;10.33;;;9.33;;
9667;SDS011;4872;48.316;10.650;2023-05-20T08:47:45;9.70;;;8.77;;
9667;SDS011;4872;48.316;10.650;2023-05-20T08:50:13;9.97;;;9.07;;
9667;SDS011;4872;48.316;10.650;2023-05-20T08:52:41;11.80;;;8.87;;
9667;SDS011;4872;48.316;10.650;2023-05-20T08:55:10;10.60;;;8.23;;
9667;SDS011;4872;48.316;10.650;2023-05-20T08:57:41;12.17;;;10.30;;
9667;SDS011;4872;48.316;10.650;2023-05-20T09:00:10;10.37;;;9.37;;
9667;SDS011;4872;48.316;10.650;2023-05-20T09:02:41;10.23;;;9.17;;
9667;SDS011;4872;48.316;10.650;2023-05-20T09:05:09;9.93;;;9.00;;
9667;SDS011;4872;48.316;10.650;2023-05-20T09:07:36;10.07;;;9.07;;
9667;SDS011;4872;48.316;10.650;2023-05-20T09:10:03;9.03;;;8.13;;
9667;SDS011;4872;48.316;10.650;2023-05-20T09:12:31;10.23;;;8.90;;
9667;SDS011;4872;48.316;10.650;2023-05-20T09:14:59;10.00;;;8.83;;
9667;SDS011;4872;48.316;10.650;2023-05-20T09:17:26;12.70;;;9.93;;
9667;SDS011;4872;48.316;10.650;2023-05-20T09:19:53;10.43;;;8.37;;
9667;SDS011;4872;48.316;10.650;2023-05-20T09:22:23;10.63;;;9.30;;
9667;SDS011;4872;48.316;10.650;2023-05-20T09:24:50;10.47;;;9.17;;
9667;SDS011;4872;48.316;10.650;2023-05-20T09:27:17;10.33;;;9.17;;
9667;SDS011;4872;48.316;10.650;2023-05-20T09:29:45;9.63;;;8.57;;
9667;SDS011;4872;48.316;10.650;2023-05-20T09:32:14;13.67;;;11.23;;
9667;SDS011;4872;48.316;10.650;2023-05-20T09:34:41;11.77;;;9.63;;
9667;SDS011;4872;48.316;10.650;2023-05-20T09:37:09;11.73;;;10.07;;
9667;SDS011;4872;48.316;10.650;2023-05-20T09:39:38;9.57;;;8.43;;
9667;SDS011;4872;48.316;10.650;2023-05-20T09:42:14;9.43;;;8.43;;
9667;SDS011;4872;48.316;10.650;2023-05-20T09:44:46;9.10;;;8.30;;
9667;SDS011;4872;48.316;10.650;2023-05-20T09:47:15;8.13;;;7.43;;
9667;SDS011;4872;48.316;10.650;2023-05-20T09:49:43;9.00;;;8.20;;
9667;SDS011;4872;48.316;10.650;2023-05-20T09:52:12;8.30;;;7.50;;
9667;SDS011;4872;48.316;10.650;2023-05-20T09:54:41;8.10;;;7.40;;
9667;SDS011;4872;48.316;10.650;2023-05-20T09:57:09;8.40;;;7.50;;
9667;SDS011;4872;48.316;10.650;2023-05-20T09:59:37;9.30;;;7.57;;
9667;SDS011;4872;48.316;10.650;2023-05-20T10:02:05;7.83;;;6.97;;
9667;SDS011;4872;48.316;10.650;2023-05-20T10:04:34;8.13;;;6.60;;
9667;SDS011;4872;48.316;10.650;2023-05-20T10:07:08;7.20;;;6.60;;
9667;SDS011;4872;48.316;10.650;2023-05-20T10:09:48;8.37;;;7.10;;
9667;SDS011;4872;48.316;10.650;2023-05-20T10:12:26;8.40;;;7.17;;
9667;SDS011;4872;48.316;10.650;2023-05-20T10:15:03;7.50;;;6.80;;
9667;SDS011;4872;48.316;10.650;2023-05-20T10:17:40;8.47;;;6.13;;
9667;SDS011;4872;48.316;10.650;2023-05-20T10:20:13;7.77;;;6.83;;
9667;SDS011;4872;48.316;10.650;2023-05-20T10:22:40;6.87;;;6.13;;
9667;SDS011;4872;48.316;10.650;2023-05-20T10:25:10;6.87;;;6.17;;
9667;SDS011;4872;48.316;10.650;2023-05-20T10:27:41;7.07;;;6.47;;
9667;SDS011;4872;48.316;10.650;2023-05-20T10:30:14;7.23;;;6.43;;
9667;SDS011;4872;48.316;10.650;2023-05-20T10:32:47;6.90;;;6.30;;
9667;SDS011;4872;48.316;10.650;2023-05-20T10:35:21;6.40;;;5.80;;
9667;SDS011;4872;48.316;10.650;2023-05-20T10:37:50;7.43;;;6.50;;
9667;SDS011;4872;48.316;10.650;2023-05-20T10:40:17;6.70;;;6.10;;
9667;SDS011;4872;48.316;10.650;2023-05-20T10:42:45;11.70;;;6.03;;
9667;SDS011;4872;48.316;10.650;2023-05-20T10:45:23;5.87;;;5.30;;
9667;SDS011;4872;48.316;10.650;2023-05-20T10:47:54;7.33;;;5.37;;
9667;SDS011;4872;48.316;10.650;2023-05-20T10:50:26;6.33;;;5.73;;
9667;SDS011;4872;48.316;10.650;2023-05-20T10:52:54;7.10;;;5.60;;
9667;SDS011;4872;48.316;10.650;2023-05-20T10:55:33;5.77;;;5.20;;
9667;SDS011;4872;48.316;10.650;2023-05-20T10:58:01;6.70;;;5.73;;
9667;SDS011;4872;48.316;10.650;2023-05-20T11:00:29;6.40;;;5.80;;
9667;SDS011;4872;48.316;10.650;2023-05-20T11:02:55;5.40;;;4.90;;
9667;SDS011;4872;48.316;10.650;2023-05-20T11:05:23;6.83;;;5.10;;
9667;SDS011;4872;48.316;10.650;2023-05-20T11:07:59;5.10;;;4.70;;
9667;SDS011;4872;48.316;10.650;2023-05-20T11:10:27;4.87;;;4.17;;
9667;SDS011;4872;48.316;10.650;2023-05-20T11:12:54;4.33;;;3.93;;
9667;SDS011;4872;48.316;10.650;2023-05-20T11:15:21;4.87;;;4.37;;
9667;SDS011;4872;48.316;10.650;2023-05-20T11:17:52;5.00;;;4.50;;
9667;SDS011;4872;48.316;10.650;2023-05-20T11:20:20;5.33;;;4.77;;
9667;SDS011;4872;48.316;10.650;2023-05-20T11:22:49;5.07;;;4.63;;
9667;SDS011;4872;48.316;10.650;2023-05-20T11:25:16;5.23;;;4.57;;
9667;SDS011;4872;48.316;10.650;2023-05-20T11:27:44;4.93;;;4.47;;
9667;SDS011;4872;48.316;10.650;2023-05-20T11:30:11;4.90;;;4.40;;
9667;SDS011;4872;48.316;10.650;2023-05-20T11:32:40;5.40;;;4.67;;
9667;SDS011;4872;48.316;10.650;2023-05-20T11:35:08;4.33;;;4.03;;
9667;SDS011;4872;48.316;10.650;2023-05-20T11:37:54;5.33;;;4.80;;
9667;SDS011;4872;48.316;10.650;2023-05-20T11:40:22;5.10;;;4.60;;
9667;SDS011;4872;48.316;10.650;2023-05-20T11:42:51;4.97;;;4.57;;
9667;SDS011;4872;48.316;10.650;2023-05-20T11:45:19;5.13;;;4.70;;
9667;SDS011;4872;48.316;10.650;2023-05-20T11:47:46;6.43;;;5.10;;
9667;SDS011;4872;48.316;10.650;2023-05-20T11:50:23;5.37;;;4.87;;
9667;SDS011;4872;48.316;10.650;2023-05-20T11:52:55;4.53;;;4.13;;
9667;SDS011;4872;48.316;10.650;2023-05-20T11:55:23;5.03;;;4.20;;
9667;SDS011;4872;48.316;10.650;2023-05-20T11:57:50;4.70;;;4.30;;
9667;SDS011;4872;48.316;10.650;2023-05-20T12:00:18;5.00;;;4.50;;
9667;SDS011;4872;48.316;10.650;2023-05-20T12:02:45;4.70;;;4.30;;
9667;SDS011;4872;48.316;10.650;2023-05-20T12:05:12;5.30;;;4.47;;
9667;SDS011;4872;48.316;10.650;2023-05-20T12:07:40;4.40;;;4.00;;
9667;SDS011;4872;48.316;10.650;2023-05-20T12:10:11;5.50;;;4.77;;
9667;SDS011;4872;48.316;10.650;2023-05-20T12:12:38;4.97;;;4.47;;
9667;SDS011;4872;48.316;10.650;2023-05-20T12:15:06;4.80;;;4.07;;
9667;SDS011;4872;48.316;10.650;2023-05-20T12:17:42;4.70;;;4.30;;
9667;SDS011;4872;48.316;10.650;2023-05-20T12:20:10;4.70;;;4.13;;
9667;SDS011;4872;48.316;10.650;2023-05-20T12:22:39;4.73;;;4.03;;
9667;SDS011;4872;48.316;10.650;2023-05-20T12:25:06;6.90;;;4.03;;
9667;SDS011;4872;48.316;10.650;2023-05-20T12:27:36;4.17;;;3.77;;
9667;SDS011;4872;48.316;10.650;2023-05-20T12:30:03;3.93;;;3.57;;
9667;SDS011;4872;48.316;10.650;2023-05-20T12:32:30;4.00;;;3.50;;
9667;SDS011;4872;48.316;10.650;2023-05-20T12:34:57;3.60;;;3.20;;
9667;SDS011;4872;48.316;10.650;2023-05-20T12:37:24;3.50;;;3.20;;
9667;SDS011;4872;48.316;10.650;2023-05-20T12:39:51;3.70;;;3.40;;
9667;SDS011;4872;48.316;10.650;2023-05-20T12:42:19;4.07;;;3.67;;
9667;SDS011;4872;48.316;10.650;2023-05-20T12:44:45;4.50;;;3.40;;
9667;SDS011;4872;48.316;10.650;2023-05-20T12:47:12;4.40;;;3.63;;
9667;SDS011;4872;48.316;10.650;2023-05-20T12:49:39;4.00;;;3.60;;
9667;SDS011;4872;48.316;10.650;2023-05-20T12:52:06;4.30;;;3.90;;
9667;SDS011;4872;48.316;10.650;2023-05-20T12:54:33;4.00;;;3.60;;
9667;SDS011;4872;48.316;10.650;2023-05-20T12:57:00;3.80;;;3.50;;
9667;SDS011;4872;48.316;10.650;2023-05-20T12:59:28;5.77;;;4.60;;
9667;SDS011;4872;48.316;10.650;2023-05-20T13:01:55;5.37;;;4.50;;
9667;SDS011;4872;48.316;10.650;2023-05-20T13:04:22;4.10;;;3.80;;
9667;SDS011;4872;48.316;10.650;2023-05-20T13:06:48;4.00;;;3.70;;
9667;SDS011;4872;48.316;10.650;2023-05-20T13:09:15;5.00;;;4.00;;
9667;SDS011;4872;48.316;10.650;2023-05-20T13:11:42;5.10;;;3.63;;
9667;SDS011;4872;48.316;10.650;2023-05-20T13:14:09;5.33;;;3.70;;
9667;SDS011;4872;48.316;10.650;2023-05-20T13:16:37;5.70;;;4.37;;
9667;SDS011;4872;48.316;10.650;2023-05-20T13:19:04;5.07;;;4.30;;
9667;SDS011;4872;48.316;10.650;2023-05-20T13:21:31;4.27;;;3.87;;
9667;SDS011;4872;48.316;10.650;2023-05-20T13:23:58;4.33;;;4.00;;
9667;SDS011;4872;48.316;10.650;2023-05-20T13:26:25;4.50;;;4.07;;
9667;SDS011;4872;48.316;10.650;2023-05-20T13:28:52;4.23;;;3.83;;
9667;SDS011;4872;48.316;10.650;2023-05-20T13:31:19;4.03;;;3.20;;
9667;SDS011;4872;48.316;10.650;2023-05-20T13:33:47;3.53;;;3.10;;
9667;SDS011;4872;48.316;10.650;2023-05-20T13:36:14;4.13;;;3.43;;
9667;SDS011;4872;48.316;10.650;2023-05-20T13:38:40;3.47;;;3.17;;
9667;SDS011;4872;48.316;10.650;2023-05-20T13:41:07;3.73;;;3.40;;
9667;SDS011;4872;48.316;10.650;2023-05-20T13:43:34;3.70;;;3.40;;
9667;SDS011;4872;48.316;10.650;2023-05-20T13:46:01;3.33;;;3.00;;
9667;SDS011;4872;48.316;10.650;2023-05-20T13:48:28;4.40;;;3.87;;
9667;SDS011;4872;48.316;10.650;2023-05-20T13:50:56;4.00;;;3.63;;
9667;SDS011;4872;48.316;10.650;2023-05-20T13:53:23;4.03;;;3.37;;
9667;SDS011;4872;48.316;10.650;2023-05-20T13:55:50;4.23;;;3.90;;
9667;SDS011;4872;48.316;10.650;2023-05-20T13:58:16;4.83;;;4.33;;
9667;SDS011;4872;48.316;10.650;2023-05-20T14:00:43;4.13;;;3.80;;
9667;SDS011;4872;48.316;10.650;2023-05-20T14:03:11;4.20;;;3.80;;
9667;SDS011;4872;48.316;10.650;2023-05-20T14:05:37;4.23;;;3.90;;
9667;SDS011;4872;48.316;10.650;2023-05-20T14:08:06;4.37;;;3.77;;
9667;SDS011;4872;48.316;10.650;2023-05-20T14:10:33;4.13;;;3.77;;
9667;SDS011;4872;48.316;10.650;2023-05-20T14:12:59;5.37;;;3.80;;
9667;SDS011;4872;48.316;10.650;2023-05-20T14:15:27;4.37;;;3.77;;
9667;SDS011;4872;48.316;10.650;2023-05-20T14:17:54;4.53;;;3.87;;
9667;SDS011;4872;48.316;10.650;2023-05-20T14:20:22;3.80;;;3.40;;
9667;SDS011;4872;48.316;10.650;2023-05-20T14:22:49;4.13;;;3.60;;
9667;SDS011;4872;48.316;10.650;2023-05-20T14:25:17;5.83;;;3.50;;
9667;SDS011;4872;48.316;10.650;2023-05-20T14:27:44;3.53;;;3.23;;
9667;SDS011;4872;48.316;10.650;2023-05-20T14:30:11;5.20;;;3.80;;
9667;SDS011;4872;48.316;10.650;2023-05-20T14:32:38;4.80;;;4.40;;
9667;SDS011;4872;48.316;10.650;2023-05-20T14:35:05;4.03;;;3.63;;
9667;SDS011;4872;48.316;10.650;2023-05-20T14:37:33;4.43;;;3.90;;
9667;SDS011;4872;48.316;10.650;2023-05-20T14:39:59;5.23;;;4.13;;
9667;SDS011;4872;48.316;10.650;2023-05-20T14:42:28;4.87;;;4.40;;
9667;SDS011;4872;48.316;10.650;2023-05-20T14:44:55;5.40;;;4.73;;
9667;SDS011;4872;48.316;10.650;2023-05-20T14:47:22;5.17;;;4.67;;
9667;SDS011;4872;48.316;10.650;2023-05-20T14:49:49;4.90;;;4.40;;
9667;SDS011;4872;48.316;10.650;2023-05-20T14:52:16;6.57;;;4.83;;
9667;SDS011;4872;48.316;10.650;2023-05-20T14:54:43;7.07;;;5.00;;
9667;SDS011;4872;48.316;10.650;2023-05-20T14:57:11;5.60;;;5.10;;
9667;SDS011;4872;48.316;10.650;2023-05-20T14:59:39;6.20;;;5.00;;
9667;SDS011;4872;48.316;10.650;2023-05-20T15:02:06;5.60;;;5.00;;
9667;SDS011;4872;48.316;10.650;2023-05-20T15:04:33;6.33;;;4.77;;
9667;SDS011;4872;48.316;10.650;2023-05-20T15:07:01;5.27;;;4.43;;
9667;SDS011;4872;48.316;10.650;2023-05-20T15:09:28;5.63;;;5.13;;
9667;SDS011;4872;48.316;10.650;2023-05-20T15:11:54;5.70;;;5.10;;
9667;SDS011;4872;48.316;10.650;2023-05-20T15:14:21;6.07;;;5.37;;
9667;SDS011;4872;48.316;10.650;2023-05-20T15:16:49;6.00;;;5.40;;
9667;SDS011;4872;48.316;10.650;2023-05-20T15:19:16;6.37;;;5.60;;
9667;SDS011;4872;48.316;10.650;2023-05-20T15:21:43;6.73;;;5.60;;
9667;SDS011;4872;48.316;10.650;2023-05-20T15:24:10;6.37;;;5.77;;
9667;SDS011;4872;48.316;10.650;2023-05-20T15:26:37;7.20;;;5.60;;
9667;SDS011;4872;48.316;10.650;2023-05-20T15:29:05;6.93;;;5.53;;
9667;SDS011;4872;48.316;10.650;2023-05-20T15:31:32;8.60;;;5.80;;
9667;SDS011;4872;48.316;10.650;2023-05-20T15:34:00;6.50;;;5.47;;
9667;SDS011;4872;48.316;10.650;2023-05-20T15:36:27;5.93;;;5.37;;
9667;SDS011;4872;48.316;10.650;2023-05-20T15:38:54;5.97;;;5.40;;
9667;SDS011;4872;48.316;10.650;2023-05-20T15:41:20;6.03;;;5.53;;
9667;SDS011;4872;48.316;10.650;2023-05-20T15:43:47;5.77;;;5.27;;
9667;SDS011;4872;48.316;10.650;2023-05-20T15:46:15;6.57;;;5.40;;
9667;SDS011;4872;48.316;10.650;2023-05-20T15:48:42;5.87;;;5.37;;
9667;SDS011;4872;48.316;10.650;2023-05-20T15:51:10;6.13;;;5.20;;
9667;SDS011;4872;48.316;10.650;2023-05-20T15:53:38;6.07;;;5.37;;
9667;SDS011;4872;48.316;10.650;2023-05-20T15:56:09;5.93;;;5.27;;
9667;SDS011;4872;48.316;10.650;2023-05-20T15:58:37;6.07;;;5.47;;
9667;SDS011;4872;48.316;10.650;2023-05-20T16:01:04;5.40;;;4.90;;
9667;SDS011;4872;48.316;10.650;2023-05-20T16:03:31;5.67;;;5.07;;
9667;SDS011;4872;48.316;10.650;2023-05-20T16:05:58;6.63;;;4.87;;
9667;SDS011;4872;48.316;10.650;2023-05-20T16:08:26;5.83;;;5.30;;
9667;SDS011;4872;48.316;10.650;2023-05-20T16:10:54;6.83;;;5.03;;
9667;SDS011;4872;48.316;10.650;2023-05-20T16:13:21;6.37;;;5.70;;
9667;SDS011;4872;48.316;10.650;2023-05-20T16:15:48;6.63;;;5.57;;
9667;SDS011;4872;48.316;10.650;2023-05-20T16:18:16;7.27;;;6.23;;
9667;SDS011;4872;48.316;10.650;2023-05-20T16:20:43;6.40;;;5.67;;
9667;SDS011;4872;48.316;10.650;2023-05-20T16:23:09;5.97;;;5.47;;
9667;SDS011;4872;48.316;10.650;2023-05-20T16:25:38;6.73;;;5.70;;
9667;SDS011;4872;48.316;10.650;2023-05-20T16:28:04;6.03;;;5.43;;
9667;SDS011;4872;48.316;10.650;2023-05-20T16:30:33;7.80;;;5.37;;
9667;SDS011;4872;48.316;10.650;2023-05-20T16:33:00;6.50;;;5.90;;
9667;SDS011;4872;48.316;10.650;2023-05-20T16:35:27;6.73;;;5.67;;
9667;SDS011;4872;48.316;10.650;2023-05-20T16:37:53;6.87;;;6.23;;
9667;SDS011;4872;48.316;10.650;2023-05-20T16:40:20;5.93;;;5.33;;
9667;SDS011;4872;48.316;10.650;2023-05-20T16:42:49;7.50;;;6.23;;
9667;SDS011;4872;48.316;10.650;2023-05-20T16:45:15;6.97;;;6.27;;
9667;SDS011;4872;48.316;10.650;2023-05-20T16:47:42;7.73;;;6.60;;
9667;SDS011;4872;48.316;10.650;2023-05-20T16:50:09;8.00;;;6.30;;
9667;SDS011;4872;48.316;10.650;2023-05-20T16:52:36;9.67;;;6.73;;
9667;SDS011;4872;48.316;10.650;2023-05-20T16:55:03;10.40;;;6.93;;
9667;SDS011;4872;48.316;10.650;2023-05-20T16:57:32;8.10;;;6.47;;
9667;SDS011;4872;48.316;10.650;2023-05-20T17:00:00;7.73;;;7.03;;
9667;SDS011;4872;48.316;10.650;2023-05-20T17:02:31;7.63;;;6.83;;
9667;SDS011;4872;48.316;10.650;2023-05-20T17:04:58;7.03;;;6.33;;
9667;SDS011;4872;48.316;10.650;2023-05-20T17:07:25;10.63;;;6.97;;
9667;SDS011;4872;48.316;10.650;2023-05-20T17:09:52;7.50;;;6.80;;
9667;SDS011;4872;48.316;10.650;2023-05-20T17:12:18;8.47;;;7.43;;
9667;SDS011;4872;48.316;10.650;2023-05-20T17:14:45;7.70;;;6.90;;
9667;SDS011;4872;48.316;10.650;2023-05-20T17:17:13;7.50;;;6.80;;
9667;SDS011;4872;48.316;10.650;2023-05-20T17:19:40;9.47;;;7.73;;
9667;SDS011;4872;48.316;10.650;2023-05-20T17:22:07;8.07;;;7.10;;
9667;SDS011;4872;48.316;10.650;2023-05-20T17:24:34;8.37;;;7.17;;
9667;SDS011;4872;48.316;10.650;2023-05-20T17:27:01;8.97;;;7.53;;
9667;SDS011;4872;48.316;10.650;2023-05-20T17:29:30;7.67;;;6.87;;
9667;SDS011;4872;48.316;10.650;2023-05-20T17:31:56;8.93;;;7.67;;
9667;SDS011;4872;48.316;10.650;2023-05-20T17:34:25;8.90;;;7.27;;
9667;SDS011;4872;48.316;10.650;2023-05-20T17:36:51;8.17;;;7.30;;
9667;SDS011;4872;48.316;10.650;2023-05-20T17:39:18;10.33;;;7.93;;
9667;SDS011;4872;48.316;10.650;2023-05-20T17:41:45;8.63;;;7.77;;
9667;SDS011;4872;48.316;10.650;2023-05-20T17:44:12;8.50;;;7.67;;
9667;SDS011;4872;48.316;10.650;2023-05-20T17:46:39;8.30;;;7.47;;
9667;SDS011;4872;48.316;10.650;2023-05-20T17:49:06;8.67;;;7.43;;
9667;SDS011;4872;48.316;10.650;2023-05-20T17:51:34;8.17;;;7.30;;
9667;SDS011;4872;48.316;10.650;2023-05-20T17:54:01;8.73;;;7.83;;
9667;SDS011;4872;48.316;10.650;2023-05-20T17:56:28;10.00;;;8.00;;
9667;SDS011;4872;48.316;10.650;2023-05-20T17:58:54;8.80;;;7.97;;
9667;SDS011;4872;48.316;10.650;2023-05-20T18:01:21;9.83;;;7.73;;
9667;SDS011;4872;48.316;10.650;2023-05-20T18:03:48;9.47;;;8.50;;
9667;SDS011;4872;48.316;10.650;2023-05-20T18:06:15;9.40;;;8.40;;
9667;SDS011;4872;48.316;10.650;2023-05-20T18:08:44;12.73;;;7.63;;
9667;SDS011;4872;48.316;10.650;2023-05-20T18:11:11;8.93;;;7.70;;
9667;SDS011;4872;48.316;10.650;2023-05-20T18:13:37;8.60;;;7.80;;
9667;SDS011;4872;48.316;10.650;2023-05-20T18:16:05;9.93;;;8.20;;
9667;SDS011;4872;48.316;10.650;2023-05-20T18:18:32;8.80;;;7.50;;
9667;SDS011;4872;48.316;10.650;2023-05-20T18:20:58;9.47;;;8.57;;
9667;SDS011;4872;48.316;10.650;2023-05-20T18:23:25;9.10;;;7.83;;
9667;SDS011;4872;48.316;10.650;2023-05-20T18:25:53;9.17;;;7.83;;
9667;SDS011;4872;48.316;10.650;2023-05-20T18:28:20;11.90;;;8.73;;
9667;SDS011;4872;48.316;10.650;2023-05-20T18:30:47;10.83;;;9.20;;
9667;SDS011;4872;48.316;10.650;2023-05-20T18:33:14;10.10;;;8.10;;
9667;SDS011;4872;48.316;10.650;2023-05-20T18:35:41;9.77;;;8.40;;
9667;SDS011;4872;48.316;10.650;2023-05-20T18:38:07;10.97;;;8.53;;
9667;SDS011;4872;48.316;10.650;2023-05-20T18:40:34;8.70;;;7.90;;
9667;SDS011;4872;48.316;10.650;2023-05-20T18:43:03;9.17;;;8.27;;
9667;SDS011;4872;48.316;10.650;2023-05-20T18:45:29;9.83;;;8.13;;
9667;SDS011;4872;48.316;10.650;2023-05-20T18:47:56;8.63;;;7.77;;
9667;SDS011;4872;48.316;10.650;2023-05-20T18:50:23;9.30;;;8.40;;
9667;SDS011;4872;48.316;10.650;2023-05-20T18:52:50;9.27;;;8.33;;
9667;SDS011;4872;48.316;10.650;2023-05-20T18:55:17;11.77;;;9.07;;
9667;SDS011;4872;48.316;10.650;2023-05-20T18:57:44;9.40;;;8.50;;
9667;SDS011;4872;48.316;10.650;2023-05-20T19:00:13;9.87;;;8.77;;
9667;SDS011;4872;48.316;10.650;2023-05-20T19:02:41;13.37;;;9.43;;